createdAt,value
2022-12-13T00:00:59.753Z,-3.2
2022-12-13T00:01:59.829Z,-3.1
2022-12-13T00:02:59.890Z,-3
2022-12-13T00:04:00.028Z,-3.3
2022-12-13T00:05:00.032Z,-3.3
2022-12-13T00:06:00.042Z,-3.5
2022-12-13T00:07:00.141Z,-3.5
2022-12-13T00:08:00.219Z,-3.5
2022-12-13T00:09:00.149Z,-3.5
2022-12-13T00:10:00.232Z,-3.6
2022-12-13T00:11:00.417Z,-3.6
2022-12-13T00:12:00.492Z,-3.5
2022-12-13T00:13:00.399Z,-3.5
2022-12-13T00:14:00.442Z,-3.4
2022-12-13T00:15:00.525Z,-3.4
2022-12-13T00:16:00.615Z,-3.5
2022-12-13T00:17:00.694Z,-3.4
2022-12-13T00:18:00.757Z,-3.2
2022-12-13T00:19:00.797Z,-3.5
2022-12-13T00:20:00.921Z,-3.5
2022-12-13T00:21:00.898Z,-3.2
2022-12-13T00:22:01.090Z,-3
2022-12-13T00:23:00.962Z,-2.9
2022-12-13T00:24:01.103Z,-2.9
2022-12-13T00:25:01.116Z,-3.1
2022-12-13T00:26:01.152Z,-3.3
2022-12-13T00:27:01.208Z,-3.3
2022-12-13T00:28:01.278Z,-3.3
2022-12-13T00:29:01.344Z,-3.3
2022-12-13T00:30:06.412Z,-3.4
2022-12-13T00:31:13.741Z,-3.3
2022-12-13T00:32:01.784Z,-3.4
2022-12-13T00:33:01.580Z,-3.4
2022-12-13T00:34:01.645Z,-3.3
2022-12-13T00:35:01.682Z,-3.2
2022-12-13T00:36:01.765Z,-3.4
2022-12-13T00:37:01.844Z,-3.4
2022-12-13T00:38:01.908Z,-3.5
2022-12-13T00:39:02.033Z,-3.6
2022-12-13T00:40:01.988Z,-3.7
2022-12-13T00:41:02.086Z,-3.9
2022-12-13T00:42:02.091Z,-3.9
2022-12-13T00:43:02.206Z,-3.8
2022-12-13T00:44:02.226Z,-3.8
2022-12-13T00:45:02.272Z,-3.8
2022-12-13T00:46:02.391Z,-3.8
2022-12-13T00:47:02.383Z,-3.8
2022-12-13T00:48:02.486Z,-3.7
2022-12-13T00:49:02.601Z,-3.6
2022-12-13T00:50:02.579Z,-3.6
2022-12-13T00:51:02.646Z,-3.6
2022-12-13T00:52:02.675Z,-3.8
2022-12-13T00:53:02.714Z,-3.8
2022-12-13T00:54:02.787Z,-3.8
2022-12-13T00:55:02.807Z,-3.8
2022-12-13T00:56:02.891Z,-3.7
2022-12-13T00:57:02.950Z,-3.7
2022-12-13T00:58:03.006Z,-3.7
2022-12-13T00:59:03.077Z,-3.7
2022-12-13T01:00:03.111Z,-3.6
2022-12-13T01:01:03.270Z,-3.8
2022-12-13T01:02:03.263Z,-3.8
2022-12-13T01:03:03.315Z,-3.7
2022-12-13T01:04:03.325Z,-3.8
2022-12-13T01:05:03.399Z,-3.7
2022-12-13T01:06:14.630Z,-3.9
2022-12-13T01:07:03.549Z,-3.8
2022-12-13T01:08:03.684Z,-3.8
2022-12-13T01:09:03.685Z,-3.9
2022-12-13T01:10:03.821Z,-3.9
2022-12-13T01:11:03.766Z,-3.8
2022-12-13T01:12:03.852Z,-4
2022-12-13T01:13:03.866Z,-3.8
2022-12-13T01:14:03.908Z,-3.9
2022-12-13T01:15:03.978Z,-4
2022-12-13T01:16:04.046Z,-3.9
2022-12-13T01:17:04.178Z,-3.8
2022-12-13T01:18:04.139Z,-3.6
2022-12-13T01:19:04.142Z,-3.6
2022-12-13T01:20:04.206Z,-3.7
2022-12-13T01:21:04.302Z,-3.8
2022-12-13T01:22:04.347Z,-3.9
2022-12-13T01:23:09.418Z,-3.7
2022-12-13T01:24:04.484Z,-3.8
2022-12-13T01:25:04.509Z,-3.8
2022-12-13T01:26:04.605Z,-3.8
2022-12-13T01:27:04.633Z,-3.9
2022-12-13T01:28:04.696Z,-3.9
2022-12-13T01:29:04.778Z,-3.8
2022-12-13T01:30:09.836Z,-3.9
2022-12-13T01:31:04.942Z,-3.9
2022-12-13T01:32:04.927Z,-3.9
2022-12-13T01:33:13.856Z,-4
2022-12-13T01:34:05.011Z,-4
2022-12-13T01:35:05.057Z,-4
2022-12-13T01:36:05.144Z,-4
2022-12-13T01:37:10.211Z,-4.1
2022-12-13T01:38:08.315Z,-4.2
2022-12-13T01:39:07.812Z,-4.2
2022-12-13T01:40:08.837Z,-4
2022-12-13T01:41:08.875Z,-4.1
2022-12-13T01:42:05.518Z,-3.9
2022-12-13T01:43:13.983Z,-4
2022-12-13T01:44:05.592Z,-4.1
2022-12-13T01:45:05.679Z,-4.1
2022-12-13T01:46:05.765Z,-4
2022-12-13T01:47:05.778Z,-4
2022-12-13T01:48:05.839Z,-4.1
2022-12-13T01:49:05.858Z,-4
2022-12-13T01:50:05.927Z,-4.1
2022-12-13T01:51:06.008Z,-4.2
2022-12-13T01:52:06.053Z,-4.2
2022-12-13T01:53:06.071Z,-4.2
2022-12-13T01:54:06.125Z,-4.1
2022-12-13T01:55:06.222Z,-4.1
2022-12-13T01:56:06.272Z,-4.2
2022-12-13T01:57:06.299Z,-4.2
2022-12-13T01:58:06.394Z,-4.2
2022-12-13T01:59:06.428Z,-4.1
2022-12-13T02:00:06.539Z,-4.2
2022-12-13T02:01:06.596Z,-4.1
2022-12-13T02:02:06.620Z,-4.1
2022-12-13T02:03:06.653Z,-4.1
2022-12-13T02:04:06.713Z,-4.1
2022-12-13T02:05:06.930Z,-4.2
2022-12-13T02:06:06.831Z,-4.2
2022-12-13T02:07:06.870Z,-4.1
2022-12-13T02:08:06.974Z,-4.2
2022-12-13T02:09:06.993Z,-4.2
2022-12-13T02:10:07.031Z,-4.3
2022-12-13T02:11:07.104Z,-4.1
2022-12-13T02:12:07.182Z,-4.3
2022-12-13T02:13:07.280Z,-4.2
2022-12-13T02:14:07.352Z,-4
2022-12-13T02:15:07.357Z,-4.1
2022-12-13T02:16:07.470Z,-4.2
2022-12-13T02:17:12.476Z,-4.3
2022-12-13T02:18:07.560Z,-4.2
2022-12-13T02:19:07.586Z,-4
2022-12-13T02:20:07.623Z,-4.3
2022-12-13T02:21:07.892Z,-4.3
2022-12-13T02:22:07.737Z,-4.2
2022-12-13T02:23:07.797Z,-4.2
2022-12-13T02:24:08.926Z,-4.4
2022-12-13T02:25:07.904Z,-4.4
2022-12-13T02:26:07.933Z,-4.4
2022-12-13T02:27:08.018Z,-4.4
2022-12-13T02:28:21.517Z,-4.3
2022-12-13T02:29:09.157Z,-4.4
2022-12-13T02:30:08.188Z,-4.4
2022-12-13T02:31:08.287Z,-4.3
2022-12-13T02:32:08.339Z,-4.4
2022-12-13T02:33:08.349Z,-4.6
2022-12-13T02:34:08.393Z,-4.6
2022-12-13T02:35:08.429Z,-4.5
2022-12-13T02:36:08.569Z,-4.4
2022-12-13T02:37:17.765Z,-4.4
2022-12-13T02:38:08.695Z,-4.3
2022-12-13T02:39:08.714Z,-4.4
2022-12-13T02:40:08.771Z,-4.5
2022-12-13T02:41:08.858Z,-4.6
2022-12-13T02:42:08.910Z,-4.4
2022-12-13T02:43:09.068Z,-4.4
2022-12-13T02:44:13.034Z,-4.4
2022-12-13T02:45:09.085Z,-4.5
2022-12-13T02:46:09.363Z,-4.5
2022-12-13T02:47:12.667Z,-4.5
2022-12-13T02:48:09.288Z,-4.5
2022-12-13T02:49:09.311Z,-4.5
2022-12-13T02:50:09.333Z,-4.7
2022-12-13T02:51:09.428Z,-4.7
2022-12-13T02:52:09.457Z,-4.7
2022-12-13T02:53:09.550Z,-4.7
2022-12-13T02:54:09.591Z,-4.6
2022-12-13T02:55:09.646Z,-4.6
2022-12-13T02:56:09.739Z,-4.5
2022-12-13T02:57:09.759Z,-4.4
2022-12-13T02:58:09.805Z,-4.6
2022-12-13T02:59:09.884Z,-4.7
2022-12-13T03:00:09.971Z,-4.8
2022-12-13T03:01:28.204Z,-4.9
2022-12-13T03:02:10.808Z,-4.8
2022-12-13T03:03:10.216Z,-4.9
2022-12-13T03:04:10.140Z,-4.7
2022-12-13T03:05:10.219Z,-4.8
2022-12-13T03:06:10.320Z,-4.6
2022-12-13T03:07:10.325Z,-4.5
2022-12-13T03:08:10.407Z,-4.8
2022-12-13T03:09:10.417Z,-4.6
2022-12-13T03:10:10.467Z,-4.7
2022-12-13T03:11:10.525Z,-4.7
2022-12-13T03:12:10.615Z,-4.8
2022-12-13T03:13:10.687Z,-4.8
2022-12-13T03:14:10.737Z,-4.7
2022-12-13T03:15:10.770Z,-4.7
2022-12-13T03:16:11.086Z,-4.9
2022-12-13T03:17:10.863Z,-5
2022-12-13T03:18:10.987Z,-5
2022-12-13T03:19:10.988Z,-4.8
2022-12-13T03:20:12.723Z,-4.9
2022-12-13T03:21:11.144Z,-4.8
2022-12-13T03:22:11.174Z,-4.8
2022-12-13T03:23:11.230Z,-4.7
2022-12-13T03:24:11.270Z,-4.8
2022-12-13T03:25:11.335Z,-4.9
2022-12-13T03:26:11.421Z,-4.8
2022-12-13T03:27:11.465Z,-4.8
2022-12-13T03:28:11.503Z,-4.9
2022-12-13T03:29:11.567Z,-5
2022-12-13T03:30:11.617Z,-5.2
2022-12-13T03:31:11.756Z,-5
2022-12-13T03:32:11.750Z,-5
2022-12-13T03:33:11.825Z,-5.1
2022-12-13T03:34:11.874Z,-5.2
2022-12-13T03:35:21.379Z,-5.1
2022-12-13T03:36:12.037Z,-5.1
2022-12-13T03:37:12.062Z,-5.1
2022-12-13T03:38:12.105Z,-4.9
2022-12-13T03:39:12.149Z,-5.1
2022-12-13T03:40:12.208Z,-5
2022-12-13T03:41:12.342Z,-5
2022-12-13T03:42:12.333Z,-5
2022-12-13T03:43:12.388Z,-4.9
2022-12-13T03:44:12.407Z,-5
2022-12-13T03:45:12.736Z,-5
2022-12-13T03:46:12.608Z,-5.1
2022-12-13T03:47:12.619Z,-4.9
2022-12-13T03:48:12.665Z,-4.9
2022-12-13T03:49:17.023Z,-5.1
2022-12-13T03:50:26.034Z,-5.2
2022-12-13T03:51:12.894Z,-5.2
2022-12-13T03:52:14.783Z,-5
2022-12-13T03:53:22.575Z,-5.1
2022-12-13T03:54:12.972Z,-5.1
2022-12-13T03:55:16.944Z,-5
2022-12-13T03:56:13.110Z,-5
2022-12-13T03:57:40.574Z,-4.9
2022-12-13T03:58:50.634Z,-5
2022-12-13T03:59:13.260Z,-4.9
2022-12-13T04:00:13.338Z,-5
2022-12-13T04:01:13.393Z,-5.2
2022-12-13T04:02:13.425Z,-5.2
2022-12-13T04:03:13.502Z,-5.2
2022-12-13T04:04:13.503Z,-5.1
2022-12-13T04:05:13.787Z,-5
2022-12-13T04:06:22.052Z,-5
2022-12-13T04:07:22.189Z,-5
2022-12-13T04:08:21.692Z,-5
2022-12-13T04:09:13.783Z,-5.2
2022-12-13T04:10:25.090Z,-5.2
2022-12-13T04:11:13.906Z,-5.2
2022-12-13T04:12:13.941Z,-5.2
2022-12-13T04:13:14.012Z,-5.3
2022-12-13T04:14:22.046Z,-5.3
2022-12-13T04:15:14.253Z,-5.3
2022-12-13T04:16:14.244Z,-5.2
2022-12-13T04:17:14.315Z,-5.2
2022-12-13T04:18:14.399Z,-5.4
2022-12-13T04:19:14.497Z,-5.3
2022-12-13T04:20:14.581Z,-5.3
2022-12-13T04:21:14.884Z,-5.4
2022-12-13T04:22:15.550Z,-5.3
2022-12-13T04:23:14.703Z,-5.4
2022-12-13T04:24:14.782Z,-5.4
2022-12-13T04:25:15.049Z,-5.5
2022-12-13T04:26:14.903Z,-5.4
2022-12-13T04:27:14.950Z,-5.4
2022-12-13T04:28:21.868Z,-5.4
2022-12-13T04:29:15.034Z,-5.5
2022-12-13T04:31:33.604Z,-5.4
2022-12-13T04:32:26.216Z,-5.4
2022-12-13T04:33:15.247Z,-5.3
2022-12-13T04:34:15.328Z,-5.3
2022-12-13T04:35:15.687Z,-5.4
2022-12-13T04:36:15.452Z,-5.4
2022-12-13T04:37:15.492Z,-5.4
2022-12-13T04:38:15.682Z,-5.4
2022-12-13T04:39:21.594Z,-5.3
2022-12-13T04:40:21.452Z,-5.4
2022-12-13T04:41:15.689Z,-5.3
2022-12-13T04:42:15.755Z,-5.4
2022-12-13T04:43:15.788Z,-5.6
2022-12-13T04:44:27.709Z,-5.6
2022-12-13T04:45:16.167Z,-5.3
2022-12-13T04:46:15.985Z,-5.2
2022-12-13T04:47:16.055Z,-5.4
2022-12-13T04:48:30.587Z,-5.4
2022-12-13T04:49:16.161Z,-5.4
2022-12-13T04:50:16.228Z,-5.5
2022-12-13T04:51:16.298Z,-5.5
2022-12-13T04:52:21.894Z,-5.3
2022-12-13T04:53:16.414Z,-5.4
2022-12-13T04:54:24.461Z,-5.5
2022-12-13T04:55:17.010Z,-5.5
2022-12-13T04:56:17.810Z,-5.6
2022-12-13T04:57:16.865Z,-5.4
2022-12-13T04:58:21.345Z,-5.2
2022-12-13T04:59:17.024Z,-5.3
2022-12-13T05:00:17.056Z,-5.3
2022-12-13T05:01:17.223Z,-5.4
2022-12-13T05:02:23.265Z,-5.5
2022-12-13T05:03:17.293Z,-5.3
2022-12-13T05:04:17.296Z,-5.3
2022-12-13T05:05:17.803Z,-5.1
2022-12-13T05:06:27.800Z,-5.2
2022-12-13T05:07:19.398Z,-5.2
2022-12-13T05:08:22.665Z,-5.2
2022-12-13T05:09:22.612Z,-5.2
2022-12-13T05:10:32.001Z,-5.4
2022-12-13T05:11:17.683Z,-5.4
2022-12-13T05:12:22.226Z,-5.4
2022-12-13T05:13:17.860Z,-5.3
2022-12-13T05:15:12.015Z,-5.1
2022-12-13T05:15:18.110Z,-5.1
2022-12-13T05:16:17.972Z,-5.1
2022-12-13T05:17:18.050Z,-5.1
2022-12-13T05:18:18.178Z,-5.1
2022-12-13T05:19:18.123Z,-5.1
2022-12-13T05:20:18.252Z,-4.9
2022-12-13T05:21:18.256Z,-4.9
2022-12-13T05:22:20.542Z,-5
2022-12-13T05:23:22.279Z,-5.1
2022-12-13T05:24:18.767Z,-5.1
2022-12-13T05:25:18.523Z,-5
2022-12-13T05:26:18.528Z,-4.9
2022-12-13T05:27:24.176Z,-4.9
2022-12-13T05:28:27.387Z,-4.6
2022-12-13T05:29:18.723Z,-4.7
2022-12-13T05:30:18.785Z,-4.8
2022-12-13T05:31:24.115Z,-4.9
2022-12-13T05:32:18.909Z,-4.8
2022-12-13T05:33:19.028Z,-4.6
2022-12-13T05:34:19.119Z,-4.6
2022-12-13T05:35:22.073Z,-4.5
2022-12-13T05:36:19.323Z,-4.7
2022-12-13T05:37:22.327Z,-4.6
2022-12-13T05:38:19.444Z,-4.6
2022-12-13T05:39:28.676Z,-4.6
2022-12-13T05:40:19.537Z,-4.7
2022-12-13T05:41:24.153Z,-4.7
2022-12-13T05:42:19.622Z,-4.6
2022-12-13T05:43:21.123Z,-4.6
2022-12-13T05:44:19.764Z,-4.7
2022-12-13T05:45:19.899Z,-4.6
2022-12-13T05:46:19.925Z,-4.8
2022-12-13T05:47:19.916Z,-4.8
2022-12-13T05:48:24.185Z,-4.8
2022-12-13T05:49:20.245Z,-4.7
2022-12-13T05:50:20.107Z,-4.7
2022-12-13T05:51:21.951Z,-4.6
2022-12-13T05:52:20.196Z,-4.5
2022-12-13T05:53:30.439Z,-4.6
2022-12-13T05:54:20.297Z,-4.7
2022-12-13T05:55:34.807Z,-4.7
2022-12-13T05:56:22.510Z,-4.7
2022-12-13T05:57:20.522Z,-4.7
2022-12-13T05:58:23.173Z,-4.8
2022-12-13T05:59:20.572Z,-4.7
2022-12-13T06:00:28.217Z,-4.7
2022-12-13T06:01:21.048Z,-4.7
2022-12-13T06:02:21.715Z,-4.8
2022-12-13T06:03:21.043Z,-4.9
2022-12-13T06:04:22.194Z,-4.9
2022-12-13T06:05:20.982Z,-5.1
2022-12-13T06:06:20.997Z,-4.8
2022-12-13T06:07:21.105Z,-4.7
2022-12-13T06:08:24.147Z,-4.9
2022-12-13T06:09:21.311Z,-4.9
2022-12-13T06:10:21.760Z,-4.9
2022-12-13T06:11:31.503Z,-5
2022-12-13T06:12:32.175Z,-5
2022-12-13T06:13:31.769Z,-4.8
2022-12-13T06:14:23.184Z,-5
2022-12-13T06:15:22.916Z,-5.1
2022-12-13T06:16:21.743Z,-5
2022-12-13T06:17:21.901Z,-5
2022-12-13T06:18:21.678Z,-5.1
2022-12-13T06:19:22.006Z,-5
2022-12-13T06:20:24.058Z,-5
2022-12-13T06:21:22.462Z,-5.1
2022-12-13T06:22:21.871Z,-5
2022-12-13T06:23:22.990Z,-4.9
2022-12-13T06:24:22.025Z,-4.8
2022-12-13T06:25:30.346Z,-5
2022-12-13T06:26:22.126Z,-4.9
2022-12-13T06:27:23.490Z,-5
2022-12-13T06:28:25.717Z,-5.2
2022-12-13T06:29:25.639Z,-5.2
2022-12-13T06:30:22.342Z,-4.9
2022-12-13T06:31:22.760Z,-5
2022-12-13T06:32:22.456Z,-5.2
2022-12-13T06:33:23.337Z,-5.3
2022-12-13T06:34:23.403Z,-5.1
2022-12-13T06:35:27.612Z,-5.1
2022-12-13T06:36:22.671Z,-5.1
2022-12-13T06:37:25.536Z,-5.2
2022-12-13T06:38:31.310Z,-5.4
2022-12-13T06:39:24.370Z,-5.3
2022-12-13T06:40:24.908Z,-5.4
2022-12-13T06:41:25.383Z,-5.1
2022-12-13T06:42:23.016Z,-5.3
2022-12-13T06:43:26.622Z,-5.5
2022-12-13T06:44:23.267Z,-5.6
2022-12-13T06:45:23.174Z,-5.4
2022-12-13T06:46:23.290Z,-5.2
2022-12-13T06:47:30.892Z,-5.2
2022-12-13T06:48:23.591Z,-5.3
2022-12-13T06:49:32.319Z,-5.1
2022-12-13T06:50:23.517Z,-5.2
2022-12-13T06:51:32.332Z,-5.3
2022-12-13T06:52:24.337Z,-5.3
2022-12-13T06:53:23.879Z,-5.3
2022-12-13T06:54:23.746Z,-5.3
2022-12-13T06:55:24.987Z,-5.4
2022-12-13T06:56:23.818Z,-5.4
2022-12-13T06:57:23.874Z,-5.3
2022-12-13T06:58:25.419Z,-5.2
2022-12-13T06:59:23.968Z,-5.3
2022-12-13T07:00:33.348Z,-5.4
2022-12-13T07:01:51.250Z,-5.5
2022-12-13T07:02:26.052Z,-5.5
2022-12-13T07:03:24.956Z,-5.5
2022-12-13T07:04:47.911Z,-5.4
2022-12-13T07:05:36.931Z,-5.5
2022-12-13T07:06:24.431Z,-5.4
2022-12-13T07:07:47.348Z,-5.4
2022-12-13T07:08:24.501Z,-5.3
2022-12-13T07:09:25.628Z,-5.2
2022-12-13T07:10:25.764Z,-5.3
2022-12-13T07:11:24.665Z,-5.4
2022-12-13T07:12:24.717Z,-5.5
2022-12-13T07:13:34.549Z,-5.4
2022-12-13T07:14:24.887Z,-5.4
2022-12-13T07:15:24.929Z,-5.5
2022-12-13T07:16:24.983Z,-5.4
2022-12-13T07:17:32.108Z,-5.5
2022-12-13T07:18:25.099Z,-5.4
2022-12-13T07:19:25.187Z,-5.4
2022-12-13T07:20:25.201Z,-5.6
2022-12-13T07:21:25.266Z,-5.5
2022-12-13T07:22:25.330Z,-5.5
2022-12-13T07:23:25.390Z,-5.5
2022-12-13T07:24:25.482Z,-5.4
2022-12-13T07:25:27.244Z,-5.4
2022-12-13T07:26:25.609Z,-5.5
2022-12-13T07:27:25.642Z,-5.5
2022-12-13T07:28:25.697Z,-5.5
2022-12-13T07:29:25.781Z,-5.3
2022-12-13T07:30:25.828Z,-5.4
2022-12-13T07:31:27.583Z,-5.4
2022-12-13T07:32:25.939Z,-5.2
2022-12-13T07:33:25.974Z,-5.2
2022-12-13T07:34:26.017Z,-5.4
2022-12-13T07:35:26.058Z,-5.2
2022-12-13T07:36:26.127Z,-5.3
2022-12-13T07:37:29.637Z,-5.3
2022-12-13T07:38:26.255Z,-5.3
2022-12-13T07:39:26.449Z,-5.2
2022-12-13T07:40:31.655Z,-5.2
2022-12-13T07:41:29.225Z,-5.2
2022-12-13T07:42:26.468Z,-5.2
2022-12-13T07:43:27.419Z,-5.1
2022-12-13T07:44:26.647Z,-5
2022-12-13T07:45:26.659Z,-4.9
2022-12-13T07:46:26.764Z,-4.9
2022-12-13T07:47:26.825Z,-4.9
2022-12-13T07:48:27.155Z,-4.8
2022-12-13T07:49:27.156Z,-5
2022-12-13T07:50:27.152Z,-4.9
2022-12-13T07:51:29.423Z,-4.8
2022-12-13T07:52:28.488Z,-4.9
2022-12-13T07:53:37.043Z,-4.7
2022-12-13T07:54:27.204Z,-4.8
2022-12-13T07:55:32.910Z,-4.9
2022-12-13T07:56:36.131Z,-4.8
2022-12-13T07:57:27.360Z,-4.6
2022-12-13T07:58:27.678Z,-4.4
2022-12-13T07:59:28.415Z,-4.4
2022-12-13T08:00:27.609Z,-4.5
2022-12-13T08:01:39.780Z,-4.6
2022-12-13T08:02:27.615Z,-4.5
2022-12-13T08:03:28.370Z,-4.1
2022-12-13T08:04:29.603Z,-4.2
2022-12-13T08:05:38.398Z,-4.4
2022-12-13T08:06:33.083Z,-4.3
2022-12-13T08:07:29.296Z,-4.2
2022-12-13T08:08:30.749Z,-4.2
2022-12-13T08:09:33.510Z,-4
2022-12-13T08:10:33.057Z,-3.9
2022-12-13T08:11:32.226Z,-3.9
2022-12-13T08:12:28.239Z,-4
2022-12-13T08:13:29.477Z,-4.1
2022-12-13T08:14:28.924Z,-4
2022-12-13T08:15:28.381Z,-3.9
2022-12-13T08:16:31.209Z,-3.7
2022-12-13T08:17:28.531Z,-3.8
2022-12-13T08:18:28.601Z,-3.6
2022-12-13T08:19:28.733Z,-3.4
2022-12-13T08:20:28.734Z,-3.3
2022-12-13T08:21:53.166Z,-3.6
2022-12-13T08:22:28.807Z,-3.7
2022-12-13T08:23:28.889Z,-3.5
2022-12-13T08:24:28.932Z,-3.4
2022-12-13T08:25:34.585Z,-3.4
2022-12-13T08:26:29.014Z,-3.2
2022-12-13T08:27:29.134Z,-3.3
2022-12-13T08:28:29.155Z,-3
2022-12-13T08:29:33.677Z,-3.1
2022-12-13T08:30:29.855Z,-3
2022-12-13T08:31:33.905Z,-2.9
2022-12-13T08:32:35.047Z,-3.1
2022-12-13T08:33:30.793Z,-3.2
2022-12-13T08:34:31.096Z,-3.1
2022-12-13T08:35:34.188Z,-2.8
2022-12-13T08:36:30.240Z,-2.9
2022-12-13T08:37:32.692Z,-3.1
2022-12-13T08:38:30.406Z,-3
2022-12-13T08:39:45.244Z,-3
2022-12-13T08:42:15.539Z,-2.7
2022-12-13T08:42:30.618Z,-2.7
2022-12-13T08:43:30.691Z,-2.6
2022-12-13T08:44:31.734Z,-2.2
2022-12-13T08:45:30.833Z,-2
2022-12-13T08:46:30.901Z,-2.1
2022-12-13T08:47:30.893Z,-2
2022-12-13T08:48:30.990Z,-1.9
2022-12-13T08:49:31.032Z,-2
2022-12-13T08:50:31.084Z,-1.9
2022-12-13T08:51:35.455Z,-1.6
2022-12-13T08:52:31.175Z,-1.5
2022-12-13T08:53:33.948Z,-1.8
2022-12-13T08:54:31.932Z,-1.7
2022-12-13T08:55:32.415Z,-1.8
2022-12-13T08:56:31.350Z,-1.8
2022-12-13T08:57:50.337Z,-1.8
2022-12-13T08:58:31.734Z,-1.3
2022-12-13T08:59:33.719Z,-1.3
2022-12-13T09:00:45.260Z,-1.5
2022-12-13T09:01:33.694Z,-1.5
2022-12-13T09:02:37.910Z,-1.5
2022-12-13T09:03:38.627Z,-1.5
2022-12-13T09:04:45.506Z,-1.2
2022-12-13T09:05:35.031Z,-1.4
2022-12-13T09:06:39.872Z,-1.3
2022-12-13T09:07:38.227Z,-0.8
2022-12-13T09:08:41.391Z,-0.9
2022-12-13T09:09:33.945Z,-1.2
2022-12-13T09:10:38.345Z,-1.2
2022-12-13T09:19:37.327Z,-0.7
2022-12-13T09:20:40.668Z,-0.3
2022-12-13T09:21:34.883Z,-0.2
2022-12-13T09:22:34.952Z,-0.3
2022-12-13T09:23:35.549Z,-0.3
2022-12-13T09:24:40.106Z,0.1
2022-12-13T09:25:36.940Z,-0.1
2022-12-13T09:26:38.030Z,-0.2
2022-12-13T09:27:39.467Z,0.1
2022-12-13T09:28:35.416Z,-0.1
2022-12-13T09:29:35.941Z,-0.1
2022-12-13T09:30:45.235Z,-0.1
2022-12-13T09:31:35.596Z,-0.2
2022-12-13T09:32:35.893Z,-0.5
2022-12-13T09:33:41.920Z,-0.4
2022-12-13T09:34:36.032Z,-0.1
2022-12-13T09:35:36.362Z,1
2022-12-13T09:36:35.955Z,1.7
2022-12-13T09:37:38.722Z,1.7
2022-12-13T09:38:36.043Z,1.4
2022-12-13T09:39:36.140Z,0.9
2022-12-13T09:40:37.724Z,1
2022-12-13T09:41:40.877Z,0.8
2022-12-13T09:42:36.326Z,0.5
2022-12-13T09:43:43.354Z,0.4
2022-12-13T09:44:42.636Z,0.5
2022-12-13T09:45:36.627Z,1.2
2022-12-13T09:46:44.653Z,1.5
2022-12-13T09:47:37.816Z,2.6
2022-12-13T09:48:36.731Z,2.6
2022-12-13T09:49:52.014Z,2.3
2022-12-13T09:50:37.014Z,1.9
2022-12-13T09:51:41.358Z,1.4
2022-12-13T09:52:37.032Z,1.4
2022-12-13T09:53:37.285Z,0.9
2022-12-13T09:54:44.786Z,1.2
2022-12-13T09:55:37.234Z,1.7
2022-12-13T09:56:37.291Z,2.1
2022-12-13T09:57:37.612Z,2.4
2022-12-13T09:58:37.488Z,2.4
2022-12-13T09:59:38.909Z,2
2022-12-13T10:01:37.556Z,2.1
2022-12-13T10:02:57.308Z,2
2022-12-13T10:03:37.612Z,1.6
2022-12-13T10:05:12.512Z,1.5
2022-12-13T10:05:39.741Z,1.8
2022-12-13T10:06:37.753Z,2
2022-12-13T10:07:37.774Z,2
2022-12-13T10:40:38.782Z,3
2022-12-13T10:41:38.714Z,2.8
2022-12-13T10:42:38.793Z,3.2
2022-12-13T10:43:39.794Z,3.1
2022-12-13T10:44:38.853Z,3.2
2022-12-13T10:45:44.966Z,3.1
2022-12-13T10:46:47.309Z,2.8
2022-12-13T10:47:39.207Z,3.3
2022-12-13T10:48:39.354Z,3.4
2022-12-13T10:49:39.041Z,3.7
2022-12-13T10:50:44.195Z,3.7
2022-12-13T10:51:45.195Z,3.6
2022-12-13T10:52:44.195Z,3.5
2022-12-13T10:53:47.047Z,3.3
2022-12-13T10:54:48.679Z,3.4
2022-12-13T10:55:44.396Z,3.7
2022-12-13T10:56:39.485Z,3.3
2022-12-13T10:57:39.495Z,3.2
2022-12-13T10:58:39.581Z,3.2
2022-12-13T10:59:39.599Z,3.5
2022-12-13T11:00:39.659Z,3.6
2022-12-13T11:01:39.780Z,3.7
2022-12-13T11:02:39.919Z,3.9
2022-12-13T11:03:39.849Z,3.8
2022-12-13T11:04:39.923Z,3.4
2022-12-13T11:05:39.961Z,3.6
2022-12-13T11:06:40.037Z,3.8
2022-12-13T11:07:48.734Z,3.6
2022-12-13T11:08:45.219Z,3.6
2022-12-13T11:09:40.488Z,3.9
2022-12-13T11:10:46.376Z,3.5
2022-12-13T11:11:41.517Z,3.3
2022-12-13T11:12:40.457Z,3.2
2022-12-13T11:13:45.495Z,3.6
2022-12-13T11:14:43.764Z,3.5
2022-12-13T11:15:40.616Z,3.4
2022-12-13T11:16:40.770Z,3.3
2022-12-13T11:17:40.781Z,3.3
2022-12-13T11:18:40.824Z,3.4
2022-12-13T11:19:41.191Z,3
2022-12-13T11:20:40.973Z,3.7
2022-12-13T11:21:44.194Z,3.5
2022-12-13T11:22:46.047Z,3.4
2022-12-13T11:23:41.064Z,3.3
2022-12-13T11:24:41.100Z,3.2
2022-12-13T11:25:41.135Z,3.5
2022-12-13T11:26:42.351Z,3.5
2022-12-13T11:27:41.495Z,3.8
2022-12-13T11:28:41.496Z,3.9
2022-12-13T11:29:42.870Z,3.5
2022-12-13T11:30:41.431Z,3.6
2022-12-13T11:31:41.521Z,3.3
2022-12-13T11:32:41.585Z,2.9
2022-12-13T11:33:47.891Z,3
2022-12-13T11:34:46.841Z,2.9
2022-12-13T11:35:46.804Z,2.7
2022-12-13T11:36:46.829Z,2.7
2022-12-13T11:37:41.896Z,2.8
2022-12-13T11:38:41.971Z,3
2022-12-13T11:39:42.024Z,2.8
2022-12-13T11:40:42.082Z,3.2
2022-12-13T11:41:52.445Z,3.4
2022-12-13T11:42:42.201Z,3
2022-12-13T11:43:42.323Z,3
2022-12-13T11:44:47.512Z,2.9
2022-12-13T11:45:42.465Z,3.1
2022-12-13T11:46:42.742Z,3.1
2022-12-13T11:47:47.782Z,3
2022-12-13T11:48:42.571Z,2.9
2022-12-13T11:49:43.718Z,3.2
2022-12-13T11:50:42.709Z,3.6
2022-12-13T11:51:42.724Z,3.4
2022-12-13T11:52:46.185Z,3.7
2022-12-13T11:53:42.881Z,3.9
2022-12-13T11:54:43.089Z,3.7
2022-12-13T11:55:43.036Z,3.6
2022-12-13T11:56:43.106Z,3.5
2022-12-13T11:57:43.700Z,3.2
2022-12-13T11:59:02.237Z,3
2022-12-13T11:59:43.565Z,2.4
2022-12-13T12:00:48.364Z,2.2
2022-12-13T12:01:43.448Z,2.1
2022-12-13T12:02:43.564Z,2.4
2022-12-13T12:03:44.655Z,2.4
2022-12-13T12:04:43.662Z,2.7
2022-12-13T12:05:43.686Z,2.8
2022-12-13T12:06:44.985Z,2.9
2022-12-13T12:08:28.183Z,2.9
2022-12-13T12:08:49.377Z,3.3
2022-12-13T12:09:48.726Z,2.9
2022-12-13T12:10:50.217Z,3.3
2022-12-13T12:11:49.148Z,3.2
2022-12-13T12:12:48.891Z,3.4
2022-12-13T12:13:50.319Z,3.4
2022-12-13T12:14:49.052Z,3.7
2022-12-13T12:15:49.173Z,3.7
2022-12-13T12:16:49.411Z,3.6
2022-12-13T12:17:49.244Z,3.4
2022-12-13T12:18:49.303Z,3.3
2022-12-13T12:19:49.462Z,3.3
2022-12-13T12:20:49.478Z,3.3
2022-12-13T12:22:13.090Z,3.4
2022-12-13T12:22:49.687Z,3.6
2022-12-13T12:23:52.725Z,3.6
2022-12-13T12:24:49.741Z,3.7
2022-12-13T12:25:54.789Z,3.4
2022-12-13T12:26:50.129Z,3.2
2022-12-13T12:27:54.928Z,3.2
2022-12-13T12:28:50.035Z,3
2022-12-13T12:30:12.103Z,2.9
2022-12-13T12:30:50.209Z,2.9
2022-12-13T12:31:50.496Z,2.9
2022-12-13T12:32:50.286Z,3.1
2022-12-13T12:33:51.872Z,3.2
2022-12-13T12:34:50.356Z,3.2
2022-12-13T12:35:51.374Z,3
2022-12-13T12:36:50.479Z,2.6
2022-12-13T12:37:51.298Z,2.4
2022-12-13T12:38:56.873Z,2.4
2022-12-13T12:39:50.586Z,2.3
2022-12-13T12:41:15.439Z,2.3
2022-12-13T12:41:50.716Z,2.3
2022-12-13T12:43:13.589Z,2.2
2022-12-13T12:43:50.893Z,2.2
2022-12-13T12:44:52.123Z,2.1
2022-12-13T12:45:58.403Z,1.9
2022-12-13T12:47:28.518Z,1.8
2022-12-13T12:48:44.071Z,2
2022-12-13T12:49:01.007Z,2.1
2022-12-13T12:49:51.256Z,2
2022-12-13T12:50:51.286Z,2
2022-12-13T12:51:51.375Z,2
2022-12-13T12:52:51.588Z,2
2022-12-13T12:53:52.007Z,2.2
2022-12-13T12:56:05.152Z,1.7
2022-12-13T12:56:51.708Z,1.5
2022-12-13T12:57:51.770Z,1.6
2022-12-13T12:58:51.894Z,1.4
2022-12-13T13:00:01.417Z,1.6
2022-12-13T13:01:03.639Z,1.6
2022-12-13T13:02:02.090Z,1.5
2022-12-13T13:02:52.263Z,1.8
2022-12-13T13:03:52.217Z,1.7
2022-12-13T13:04:52.216Z,1.5
2022-12-13T13:05:54.743Z,1.4
2022-12-13T13:06:53.389Z,1.4
2022-12-13T13:07:52.428Z,1.2
2022-12-13T13:08:55.444Z,1.2
2022-12-13T13:09:54.760Z,1
2022-12-13T13:10:52.706Z,1.1
2022-12-13T13:11:57.391Z,1.3
2022-12-13T13:12:52.932Z,1.3
2022-12-13T13:13:54.036Z,1.3
2022-12-13T13:15:08.995Z,1.2
2022-12-13T13:15:58.115Z,1.3
2022-12-13T13:18:18.287Z,1.2
2022-12-13T13:18:43.773Z,1.1
2022-12-13T13:18:53.558Z,1.1
2022-12-13T13:20:01.519Z,1.2
2022-12-13T13:20:53.596Z,1
2022-12-13T13:21:53.409Z,0.8
2022-12-13T13:23:25.474Z,1.1
2022-12-13T13:23:53.819Z,1.2
2022-12-13T13:24:53.673Z,1.4
2022-12-13T13:26:15.457Z,1.4
2022-12-13T13:26:54.071Z,1.3
2022-12-13T13:27:54.866Z,1.1
2022-12-13T13:28:54.354Z,0.9
2022-12-13T13:29:53.979Z,1
2022-12-13T13:30:54.075Z,1
2022-12-13T13:31:59.594Z,1.2
2022-12-13T13:32:54.211Z,0.8
2022-12-13T13:33:54.310Z,0.7
2022-12-13T13:34:56.117Z,0.9
2022-12-13T13:35:54.388Z,0.8
2022-12-13T13:36:54.685Z,1.1
2022-12-13T13:37:55.234Z,1.1
2022-12-13T13:38:54.607Z,1.1
2022-12-13T13:39:54.658Z,0.9
2022-12-13T13:41:07.742Z,0.9
2022-12-13T13:42:07.770Z,1
2022-12-13T13:43:07.937Z,0.8
2022-12-13T13:44:07.963Z,0.8
2022-12-13T13:45:07.933Z,0.7
2022-12-13T13:46:08.116Z,0.7
2022-12-13T13:47:08.033Z,0.8
2022-12-13T13:48:14.338Z,0.7
2022-12-13T13:49:08.203Z,0.8
2022-12-13T13:50:08.249Z,0.8
2022-12-13T13:51:08.238Z,0.8
2022-12-13T13:52:24.237Z,0.8
2022-12-13T13:53:08.351Z,1
2022-12-13T13:54:08.454Z,1.2
2022-12-13T13:55:08.494Z,1.2
2022-12-13T13:56:08.542Z,0.8
2022-12-13T13:57:08.595Z,0.7
2022-12-13T13:58:09.998Z,0.7
2022-12-13T13:59:08.815Z,0.5
2022-12-13T14:00:08.835Z,0.5
2022-12-13T14:01:08.916Z,0.6
2022-12-13T14:02:09.010Z,0.7
2022-12-13T14:03:21.948Z,0.8
2022-12-13T14:04:09.098Z,0.8
2022-12-13T14:05:09.156Z,0.7
2022-12-13T14:06:09.164Z,0.7
2022-12-13T14:07:09.254Z,0.7
2022-12-13T14:08:09.317Z,0.7
2022-12-13T14:09:09.420Z,0.5
2022-12-13T14:10:09.446Z,0.5
2022-12-13T14:11:11.084Z,0.6
2022-12-13T14:14:21.448Z,0.4
2022-12-13T14:15:19.105Z,0.4
2022-12-13T14:16:20.610Z,0.4
2022-12-13T14:17:19.675Z,0.5
2022-12-13T14:18:21.133Z,0.5
2022-12-13T14:19:19.365Z,0.6
2022-12-13T14:20:19.507Z,0.6